sensor_id;sensor_type;location;lat;lon;timestamp;pressure;altitude;pressure_sealevel;temperature;humidity
74433;BME280;62865;53.146;23.172;2023-04-03T00:01:07;1027.9;;;1.8;53.7
74433;BME280;62865;53.146;23.172;2023-04-03T00:06:29;1028;;;1.8;53.8
74433;BME280;62865;53.146;23.172;2023-04-03T00:11:13;1028;;;1.7;53.9
74433;BME280;62865;53.146;23.172;2023-04-03T00:16:43;1028.1;;;1.6;53.9
74433;BME280;62865;53.146;23.172;2023-04-03T00:21:27;1028.1;;;1.5;53.9
74433;BME280;62865;53.146;23.172;2023-04-03T00:25:57;1028.1;;;1.4;54.1
74433;BME280;62865;53.146;23.172;2023-04-03T00:31:27;1028.2;;;1.4;54.1
74433;BME280;62865;53.146;23.172;2023-04-03T00:35:57;1028.2;;;1.3;54.1
74433;BME280;62865;53.146;23.172;2023-04-03T00:41:43;1028.2;;;1.2;54.3
74433;BME280;62865;53.146;23.172;2023-04-03T00:46:27;1028.3;;;1.1;54.4
74433;BME280;62865;53.146;23.172;2023-04-03T00:51:08;1028.3;;;1;54.4
74433;BME280;62865;53.146;23.172;2023-04-03T00:56:21;1028.3;;;1;54.6
74433;BME280;62865;53.146;23.172;2023-04-03T01:01:05;1028.3;;;0.9;54.8
74433;BME280;62865;53.146;23.172;2023-04-03T01:06:43;1028.3;;;0.8;54.9
74433;BME280;62865;53.146;23.172;2023-04-03T01:11:11;1028.3;;;0.8;55.1
74433;BME280;62865;53.146;23.172;2023-04-03T01:15:59;1028.4;;;0.7;55.4
74433;BME280;62865;53.146;23.172;2023-04-03T01:22:32;1028.4;;;0.6;55.8
74433;BME280;62865;53.146;23.172;2023-04-03T01:26:13;1028.4;;;0.6;56.2
74433;BME280;62865;53.146;23.172;2023-04-03T01:31:47;1028.5;;;0.5;56.5
74433;BME280;62865;53.146;23.172;2023-04-03T01:36:29;1028.5;;;0.5;56.8
74433;BME280;62865;53.146;23.172;2023-04-03T01:41:37;1028.5;;;0.4;57.1
74433;BME280;62865;53.146;23.172;2023-04-03T01:46:30;1028.6;;;0.3;57.2
74433;BME280;62865;53.146;23.172;2023-04-03T01:51:14;1028.6;;;0.3;57.5
74433;BME280;62865;53.146;23.172;2023-04-03T01:56:45;1028.6;;;0.3;57.7
74433;BME280;62865;53.146;23.172;2023-04-03T02:01:27;1028.7;;;0.2;57.8
74433;BME280;62865;53.146;23.172;2023-04-03T02:05:59;1028.7;;;0.2;57.9
74433;BME280;62865;53.146;23.172;2023-04-03T02:11:27;1028.8;;;0.1;58
74433;BME280;62865;53.146;23.172;2023-04-03T02:16:29;1028.8;;;0.1;58.2
74433;BME280;62865;53.146;23.172;2023-04-03T02:21:43;1028.8;;;0.1;58.3
74433;BME280;62865;53.146;23.172;2023-04-03T02:26:27;1028.8;;;0;58.6
74433;BME280;62865;53.146;23.172;2023-04-03T02:31:25;1028.9;;;0;58.7
74433;BME280;62865;53.146;23.172;2023-04-03T02:36:27;1028.9;;;0;58.6
74433;BME280;62865;53.146;23.172;2023-04-03T02:41:04;1029;;;-0.1;58.9
74433;BME280;62865;53.146;23.172;2023-04-03T02:46:41;1029.1;;;-0.1;59.2
74433;BME280;62865;53.146;23.172;2023-04-03T02:51:27;1029.1;;;-0.2;59.6
74433;BME280;62865;53.146;23.172;2023-04-03T02:56:47;1029.1;;;-0.2;59.7
74433;BME280;62865;53.146;23.172;2023-04-03T03:01:22;1029.1;;;-0.2;59.8
74433;BME280;62865;53.146;23.172;2023-04-03T03:06:04;1029.2;;;-0.3;60.1
74433;BME280;62865;53.146;23.172;2023-04-03T03:11:45;1029.2;;;-0.3;60.2
74433;BME280;62865;53.146;23.172;2023-04-03T03:16:27;1029.2;;;-0.4;60.2
74433;BME280;62865;53.146;23.172;2023-04-03T03:20:58;1029.2;;;-0.4;60.4
74433;BME280;62865;53.146;23.172;2023-04-03T03:26:23;1029.2;;;-0.4;60.6
74433;BME280;62865;53.146;23.172;2023-04-03T03:31:13;1029.2;;;-0.4;60.9
74433;BME280;62865;53.146;23.172;2023-04-03T03:36:35;1029.3;;;-0.5;61
74433;BME280;62865;53.146;23.172;2023-04-03T03:41:13;1029.3;;;-0.5;61.4
74433;BME280;62865;53.146;23.172;2023-04-03T03:45:57;1029.3;;;-0.6;61.6
74433;BME280;62865;53.146;23.172;2023-04-03T03:51:43;1029.4;;;-0.6;61.7
74433;BME280;62865;53.146;23.172;2023-04-03T03:55:57;1029.4;;;-0.6;61.8
74433;BME280;62865;53.146;23.172;2023-04-03T04:01:35;1029.4;;;-0.7;61.8
74433;BME280;62865;53.146;23.172;2023-04-03T04:06:07;1029.5;;;-0.7;62
74433;BME280;62865;53.146;23.172;2023-04-03T04:11:09;1029.5;;;-0.7;62
74433;BME280;62865;53.146;23.172;2023-04-03T04:16:41;1029.6;;;-0.7;62.1
74433;BME280;62865;53.146;23.172;2023-04-03T04:20:57;1029.6;;;-0.6;62.1
74433;BME280;62865;53.146;23.172;2023-04-03T04:25:57;1029.6;;;-0.5;61.5
74433;BME280;62865;53.146;23.172;2023-04-03T04:30:57;1029.7;;;-0.4;61.5
74433;BME280;62865;53.146;23.172;2023-04-03T04:36:07;1029.7;;;-0.4;61.6
74433;BME280;62865;53.146;23.172;2023-04-03T04:41:45;1029.7;;;-0.4;61.5
74433;BME280;62865;53.146;23.172;2023-04-03T04:46:08;1029.7;;;-0.4;61.6
74433;BME280;62865;53.146;23.172;2023-04-03T04:51:08;1029.7;;;-0.1;61.2
74433;BME280;62865;53.146;23.172;2023-04-03T04:56:08;1029.7;;;-0.1;60.9
74433;BME280;62865;53.146;23.172;2023-04-03T05:01:11;1029.8;;;-0.1;61.1
74433;BME280;62865;53.146;23.172;2023-04-03T05:06:45;1029.7;;;-0.1;61.2
74433;BME280;62865;53.146;23.172;2023-04-03T05:11:13;1029.7;;;0;60.8
74433;BME280;62865;53.146;23.172;2023-04-03T05:16:11;1029.8;;;0;60.8
74433;BME280;62865;53.146;23.172;2023-04-03T05:20:57;1029.8;;;0.1;60.8
74433;BME280;62865;53.146;23.172;2023-04-03T05:25:57;1029.8;;;0.2;60.5
74433;BME280;62865;53.146;23.172;2023-04-03T05:31:45;1029.8;;;0.2;60
74433;BME280;62865;53.146;23.172;2023-04-03T05:36:04;1029.8;;;0.3;59.6
74433;BME280;62865;53.146;23.172;2023-04-03T05:41:27;1029.9;;;0.3;59.6
74433;BME280;62865;53.146;23.172;2023-04-03T05:45:57;1029.9;;;0.4;59.5
74433;BME280;62865;53.146;23.172;2023-04-03T05:51:24;1029.9;;;0.5;59.1
74433;BME280;62865;53.146;23.172;2023-04-03T05:56:45;1029.9;;;0.6;59
74433;BME280;62865;53.146;23.172;2023-04-03T06:01:13;1029.9;;;0.6;58.9
74433;BME280;62865;53.146;23.172;2023-04-03T06:06:52;1029.9;;;0.7;58.8
74433;BME280;62865;53.146;23.172;2023-04-03T06:11:03;1030;;;0.8;58.2
74433;BME280;62865;53.146;23.172;2023-04-03T06:16:34;1030;;;0.8;57.8
74433;BME280;62865;53.146;23.172;2023-04-03T06:21:43;1030.1;;;1;57.8
74433;BME280;62865;53.146;23.172;2023-04-03T06:26:27;1030.1;;;1.2;57.1
74433;BME280;62865;53.146;23.172;2023-04-03T06:31:35;1030.1;;;1.3;56.1
74433;BME280;62865;53.146;23.172;2023-04-03T06:36:42;1030.2;;;1.4;55.6
74433;BME280;62865;53.146;23.172;2023-04-03T06:41:19;1030.1;;;1.5;55.3
74433;BME280;62865;53.146;23.172;2023-04-03T06:46:42;1030.2;;;1.5;55.1
74433;BME280;62865;53.146;23.172;2023-04-03T06:50:57;1030.3;;;1.7;54.6
74433;BME280;62865;53.146;23.172;2023-04-03T06:56:34;1030.3;;;1.8;54.1
74433;BME280;62865;53.146;23.172;2023-04-03T07:00:57;1030.3;;;1.8;53.6
74433;BME280;62865;53.146;23.172;2023-04-03T07:06:23;1030.3;;;2;52.9
74433;BME280;62865;53.146;23.172;2023-04-03T07:11:46;1030.3;;;2.1;52.2
74433;BME280;62865;53.146;23.172;2023-04-03T07:16:13;1030.3;;;2.2;51.3
74433;BME280;62865;53.146;23.172;2023-04-03T07:21:35;1030.3;;;2.3;51.3
74433;BME280;62865;53.146;23.172;2023-04-03T07:25:58;1030.3;;;2.3;50.7
74433;BME280;62865;53.146;23.172;2023-04-03T07:31:09;1030.5;;;2.2;49.4
74433;BME280;62865;53.146;23.172;2023-04-03T07:36:42;1030.4;;;2.3;49.8
74433;BME280;62865;53.146;23.172;2023-04-03T07:41:14;1030.4;;;2.3;49
74433;BME280;62865;53.146;23.172;2023-04-03T07:46:22;1030.5;;;2.5;49.3
74433;BME280;62865;53.146;23.172;2023-04-03T07:50:59;1030.5;;;2.6;49
74433;BME280;62865;53.146;23.172;2023-04-03T07:56:14;1030.5;;;2.8;48.5
74433;BME280;62865;53.146;23.172;2023-04-03T08:01:42;1030.5;;;2.8;48.4
74433;BME280;62865;53.146;23.172;2023-04-03T08:06:01;1030.6;;;2.9;47.8
74433;BME280;62865;53.146;23.172;2023-04-03T08:11:44;1030.5;;;3.1;46.7
74433;BME280;62865;53.146;23.172;2023-04-03T08:16:28;1030.6;;;3;45.6
74433;BME280;62865;53.146;23.172;2023-04-03T08:21:22;1030.6;;;3;46.5
74433;BME280;62865;53.146;23.172;2023-04-03T08:26:12;1030.6;;;3.1;45.6
74433;BME280;62865;53.146;23.172;2023-04-03T08:31:01;1030.6;;;3.3;45.1
74433;BME280;62865;53.146;23.172;2023-04-03T08:36:38;1030.7;;;3.3;45.7
74433;BME280;62865;53.146;23.172;2023-04-03T08:41:31;1030.7;;;3.5;44.5
74433;BME280;62865;53.146;23.172;2023-04-03T08:46:09;1030.7;;;3.7;44
74433;BME280;62865;53.146;23.172;2023-04-03T08:51:20;1030.8;;;3.9;43.1
74433;BME280;62865;53.146;23.172;2023-04-03T08:56:07;1030.7;;;3.8;42.7
74433;BME280;62865;53.146;23.172;2023-04-03T09:01:44;1030.8;;;3.8;42.7
74433;BME280;62865;53.146;23.172;2023-04-03T09:06:28;1030.8;;;3.9;42.4
74433;BME280;62865;53.146;23.172;2023-04-03T09:11:09;1030.8;;;3.9;41.9
74433;BME280;62865;53.146;23.172;2023-04-03T09:16:25;1030.7;;;3.9;42.6
74433;BME280;62865;53.146;23.172;2023-04-03T09:20:59;1030.7;;;4.2;42.1
74433;BME280;62865;53.146;23.172;2023-04-03T09:26:45;1030.7;;;4.3;41.1
74433;BME280;62865;53.146;23.172;2023-04-03T09:31:16;1030.7;;;4.3;40.8
74433;BME280;62865;53.146;23.172;2023-04-03T09:36:44;1030.8;;;4.2;39.9
74433;BME280;62865;53.146;23.172;2023-04-03T09:41:13;1030.8;;;4.1;39.3
74433;BME280;62865;53.146;23.172;2023-04-03T09:46:25;1030.8;;;4.1;39.8
74433;BME280;62865;53.146;23.172;2023-04-03T09:51:30;1030.7;;;4.2;39.1
74433;BME280;62865;53.146;23.172;2023-04-03T09:56:48;1030.8;;;4.3;39.2
74433;BME280;62865;53.146;23.172;2023-04-03T10:01:19;1030.8;;;4.4;39.7
74433;BME280;62865;53.146;23.172;2023-04-03T10:06:21;1030.8;;;4.6;39
74433;BME280;62865;53.146;23.172;2023-04-03T10:11:09;1030.7;;;4.7;39.4
74433;BME280;62865;53.146;23.172;2023-04-03T10:16:45;1030.7;;;5;39.3
74433;BME280;62865;53.146;23.172;2023-04-03T10:21:29;1030.7;;;5.2;39.4
74433;BME280;62865;53.146;23.172;2023-04-03T10:26:09;1030.7;;;5.2;38.5
74433;BME280;62865;53.146;23.172;2023-04-03T10:30:58;1030.6;;;5.3;38.6
74433;BME280;62865;53.146;23.172;2023-04-03T10:36:25;1030.7;;;5.3;38.8
74433;BME280;62865;53.146;23.172;2023-04-03T10:41:46;1030.7;;;5;38.1
74433;BME280;62865;53.146;23.172;2023-04-03T10:46:28;1030.7;;;5.3;38.2
74433;BME280;62865;53.146;23.172;2023-04-03T10:51:15;1030.6;;;5.6;38.4
74433;BME280;62865;53.146;23.172;2023-04-03T10:56:13;1030.5;;;5.8;39.1
74433;BME280;62865;53.146;23.172;2023-04-03T11:00:59;1030.5;;;5.9;38.8
74433;BME280;62865;53.146;23.172;2023-04-03T11:06:44;1030.5;;;5.7;38.8
74433;BME280;62865;53.146;23.172;2023-04-03T11:11:24;1030.5;;;5.4;39.6
74433;BME280;62865;53.146;23.172;2023-04-03T11:15:58;1030.6;;;5.2;39.7
74433;BME280;62865;53.146;23.172;2023-04-03T11:21:22;1030.4;;;5.2;39.3
74433;BME280;62865;53.146;23.172;2023-04-03T11:25:59;1030.5;;;5.4;39.2
74433;BME280;62865;53.146;23.172;2023-04-03T11:31:47;1030.4;;;5.8;38.7
74433;BME280;62865;53.146;23.172;2023-04-03T11:36:30;1030.3;;;6.1;38.7
74433;BME280;62865;53.146;23.172;2023-04-03T11:41:24;1030.3;;;6.1;38.4
74433;BME280;62865;53.146;23.172;2023-04-03T11:46:08;1030.3;;;6;38.9
74433;BME280;62865;53.146;23.172;2023-04-03T11:51:37;1030.3;;;5.8;38.5
74433;BME280;62865;53.146;23.172;2023-04-03T11:56:44;1030.2;;;5.8;38.4
74433;BME280;62865;53.146;23.172;2023-04-03T12:00:59;1030.3;;;5.9;37.9
74433;BME280;62865;53.146;23.172;2023-04-03T12:11:19;1030.1;;;6.4;37.6
74433;BME280;62865;53.146;23.172;2023-04-03T12:16:18;1030.2;;;6.3;37.3
74433;BME280;62865;53.146;23.172;2023-04-03T12:22:17;1030.1;;;6.2;37.6
74433;BME280;62865;53.146;23.172;2023-04-03T12:26:24;1030.1;;;6.4;37.4
74433;BME280;62865;53.146;23.172;2023-04-03T12:31:48;1030.2;;;6.5;36.5
74433;BME280;62865;53.146;23.172;2023-04-03T12:36:02;1030.2;;;6.4;36.6
74433;BME280;62865;53.146;23.172;2023-04-03T12:41:14;1030.1;;;6.3;36.9
74433;BME280;62865;53.146;23.172;2023-04-03T12:46:45;1030.2;;;6.1;36.3
74433;BME280;62865;53.146;23.172;2023-04-03T12:51:31;1030.3;;;6.2;35.5
74433;BME280;62865;53.146;23.172;2023-04-03T12:56:44;1030.2;;;6.3;35.6
74433;BME280;62865;53.146;23.172;2023-04-03T13:01:22;1030.1;;;6.5;36.5
74433;BME280;62865;53.146;23.172;2023-04-03T13:06:22;1030.1;;;6.5;37.1
74433;BME280;62865;53.146;23.172;2023-04-03T13:11:44;1030.1;;;6.6;37
74433;BME280;62865;53.146;23.172;2023-04-03T13:16:27;1030.1;;;6.8;35.9
74433;BME280;62865;53.146;23.172;2023-04-03T13:21:44;1030.1;;;6.7;37.3
74433;BME280;62865;53.146;23.172;2023-04-03T13:26:12;1030.1;;;7;36.2
74433;BME280;62865;53.146;23.172;2023-04-03T13:31:03;1030.1;;;7.1;36.1
74433;BME280;62865;53.146;23.172;2023-04-03T13:36:44;1030.1;;;7.1;34.8
74433;BME280;62865;53.146;23.172;2023-04-03T13:41:31;1030.1;;;6.8;34.2
74433;BME280;62865;53.146;23.172;2023-04-03T13:46:46;1030.1;;;6.8;36.1
74433;BME280;62865;53.146;23.172;2023-04-03T13:51:24;1030;;;6.5;37.5
74433;BME280;62865;53.146;23.172;2023-04-03T13:56:15;1030.1;;;6.4;37.3
74433;BME280;62865;53.146;23.172;2023-04-03T14:01:46;1030.1;;;6.5;36.8
74433;BME280;62865;53.146;23.172;2023-04-03T14:06:32;1030;;;6.6;37.1
74433;BME280;62865;53.146;23.172;2023-04-03T14:11:46;1030.1;;;6.4;37.4
74433;BME280;62865;53.146;23.172;2023-04-03T14:16:12;1030.2;;;6.3;37.9
74433;BME280;62865;53.146;23.172;2023-04-03T14:21:10;1030.2;;;6.2;38.2
74433;BME280;62865;53.146;23.172;2023-04-03T14:26:46;1030.2;;;6.2;38
74433;BME280;62865;53.146;23.172;2023-04-03T14:31:30;1030.2;;;6.1;37.8
74433;BME280;62865;53.146;23.172;2023-04-03T14:36:46;1030.2;;;6.1;38.4
74433;BME280;62865;53.146;23.172;2023-04-03T14:41:00;1030.2;;;6.2;39
74433;BME280;62865;53.146;23.172;2023-04-03T14:46:14;1030.2;;;6.4;38.2
74433;BME280;62865;53.146;23.172;2023-04-03T14:51:46;1030.2;;;6.5;38
74433;BME280;62865;53.146;23.172;2023-04-03T14:56:42;1030.2;;;6.6;38.4
74433;BME280;62865;53.146;23.172;2023-04-03T15:01:30;1030.3;;;6.6;38.2
74433;BME280;62865;53.146;23.172;2023-04-03T15:06:38;1030.3;;;6.5;38.3
74433;BME280;62865;53.146;23.172;2023-04-03T15:11:30;1030.3;;;6.1;38.8
74433;BME280;62865;53.146;23.172;2023-04-03T15:16:00;1030.3;;;6.1;38.1
74433;BME280;62865;53.146;23.172;2023-04-03T15:21:46;1030.3;;;6;38.3
74433;BME280;62865;53.146;23.172;2023-04-03T15:26:30;1030.4;;;5.9;38.6
74433;BME280;62865;53.146;23.172;2023-04-03T15:31:44;1030.3;;;5.7;39.1
74433;BME280;62865;53.146;23.172;2023-04-03T15:35:58;1030.3;;;5.6;39.1
74433;BME280;62865;53.146;23.172;2023-04-03T15:41:24;1030.3;;;5.5;39.7
74433;BME280;62865;53.146;23.172;2023-04-03T15:46:11;1030.3;;;5.6;40
74433;BME280;62865;53.146;23.172;2023-04-03T15:50:58;1030.4;;;5.6;39.9
74433;BME280;62865;53.146;23.172;2023-04-03T15:56:46;1030.5;;;5.5;39.8
74433;BME280;62865;53.146;23.172;2023-04-03T16:01:24;1030.5;;;5.5;40
74433;BME280;62865;53.146;23.172;2023-04-03T16:06:38;1030.5;;;5.4;41
74433;BME280;62865;53.146;23.172;2023-04-03T16:11:00;1030.5;;;5.4;41
74433;BME280;62865;53.146;23.172;2023-04-03T16:16:24;1030.5;;;5.2;41
74433;BME280;62865;53.146;23.172;2023-04-03T16:21:48;1030.5;;;5.1;41.6
74433;BME280;62865;53.146;23.172;2023-04-03T16:26:16;1030.5;;;5;41.1
74433;BME280;62865;53.146;23.172;2023-04-03T16:31:30;1030.5;;;5;41.1
74433;BME280;62865;53.146;23.172;2023-04-03T16:36:10;1030.5;;;4.9;41.4
74433;BME280;62865;53.146;23.172;2023-04-03T16:41:26;1030.6;;;4.8;41.9
74433;BME280;62865;53.146;23.172;2023-04-03T16:46:48;1030.6;;;4.8;42.3
74433;BME280;62865;53.146;23.172;2023-04-03T16:51:11;1030.6;;;4.8;42.1
74433;BME280;62865;53.146;23.172;2023-04-03T16:56:40;1030.6;;;4.8;42.1
74433;BME280;62865;53.146;23.172;2023-04-03T17:01:08;1030.6;;;4.7;42.1
74433;BME280;62865;53.146;23.172;2023-04-03T17:06:26;1030.6;;;4.6;41.8
74433;BME280;62865;53.146;23.172;2023-04-03T17:11:48;1030.6;;;4.6;42
74433;BME280;62865;53.146;23.172;2023-04-03T17:16:26;1030.6;;;4.5;42.2
74433;BME280;62865;53.146;23.172;2023-04-03T17:21:48;1030.6;;;4.5;42.3
74433;BME280;62865;53.146;23.172;2023-04-03T17:26:16;1030.6;;;4.5;42.4
74433;BME280;62865;53.146;23.172;2023-04-03T17:31:40;1030.6;;;4.4;42.5
74433;BME280;62865;53.146;23.172;2023-04-03T17:36:48;1030.7;;;4.4;42.6
74433;BME280;62865;53.146;23.172;2023-04-03T17:41:26;1030.7;;;4.3;42.5
74433;BME280;62865;53.146;23.172;2023-04-03T17:46:38;1030.7;;;4.3;42.6
74433;BME280;62865;53.146;23.172;2023-04-03T17:51:10;1030.8;;;4.1;42.8
74433;BME280;62865;53.146;23.172;2023-04-03T17:56:40;1030.8;;;4;43.3
74433;BME280;62865;53.146;23.172;2023-04-03T18:01:48;1030.9;;;3.8;43.8
74433;BME280;62865;53.146;23.172;2023-04-03T18:06:27;1030.8;;;3.7;43.9
74433;BME280;62865;53.146;23.172;2023-04-03T18:11:38;1030.9;;;3.7;44.2
74433;BME280;62865;53.146;23.172;2023-04-03T18:15:58;1030.9;;;3.6;44.5
74433;BME280;62865;53.146;23.172;2023-04-03T18:21:38;1030.9;;;3.5;44.9
74433;BME280;62865;53.146;23.172;2023-04-03T18:26:47;1030.9;;;3.4;45.3
74433;BME280;62865;53.146;23.172;2023-04-03T18:31:16;1030.9;;;3.3;45.5
74433;BME280;62865;53.146;23.172;2023-04-03T18:36:38;1031;;;3.2;45.7
74433;BME280;62865;53.146;23.172;2023-04-03T18:41:10;1030.9;;;3.1;46
74433;BME280;62865;53.146;23.172;2023-04-03T18:46:40;1031;;;3;46.3
74433;BME280;62865;53.146;23.172;2023-04-03T18:51:48;1030.9;;;3;46.6
74433;BME280;62865;53.146;23.172;2023-04-03T18:56:26;1030.9;;;2.9;46.9
74433;BME280;62865;53.146;23.172;2023-04-03T19:01:48;1030.9;;;2.9;47.3
74433;BME280;62865;53.146;23.172;2023-04-03T19:06:16;1030.9;;;2.8;47.7
74433;BME280;62865;53.146;23.172;2023-04-03T19:11:40;1030.9;;;2.7;47.9
74433;BME280;62865;53.146;23.172;2023-04-03T19:16:48;1030.9;;;2.7;48.1
74433;BME280;62865;53.146;23.172;2023-04-03T19:21:00;1030.8;;;2.6;48.5
74433;BME280;62865;53.146;23.172;2023-04-03T19:26:41;1030.8;;;2.5;48.8
74433;BME280;62865;53.146;23.172;2023-04-03T19:31:17;1030.9;;;2.4;49.2
74433;BME280;62865;53.146;23.172;2023-04-03T19:36:14;1030.9;;;2.4;49.4
74433;BME280;62865;53.146;23.172;2023-04-03T19:41:48;1031;;;2.3;49.7
74433;BME280;62865;53.146;23.172;2023-04-03T19:46:16;1031;;;2.2;49.9
74433;BME280;62865;53.146;23.172;2023-04-03T19:51:38;1031;;;2.2;50.3
74433;BME280;62865;53.146;23.172;2023-04-03T19:56:16;1031;;;2.1;50.5
74433;BME280;62865;53.146;23.172;2023-04-03T20:01:08;1031;;;1.9;50.8
74433;BME280;62865;53.146;23.172;2023-04-03T20:06:48;1031;;;1.8;51.3
74433;BME280;62865;53.146;23.172;2023-04-03T20:11:26;1031;;;1.8;51.7
74433;BME280;62865;53.146;23.172;2023-04-03T20:16:40;1031;;;1.7;51.7
74433;BME280;62865;53.146;23.172;2023-04-03T20:21:01;1031;;;1.6;51.8
74433;BME280;62865;53.146;23.172;2023-04-03T20:26:40;1031;;;1.5;52.1
74433;BME280;62865;53.146;23.172;2023-04-03T20:31:48;1031;;;1.5;52.2
74433;BME280;62865;53.146;23.172;2023-04-03T20:36:26;1031;;;1.4;52.5
74433;BME280;62865;53.146;23.172;2023-04-03T20:41:30;1031;;;1.5;52.4
74433;BME280;62865;53.146;23.172;2023-04-03T20:46:10;1031.1;;;1.5;52.5
74433;BME280;62865;53.146;23.172;2023-04-03T20:51:24;1031.1;;;1.4;52.8
74433;BME280;62865;53.146;23.172;2023-04-03T20:56:48;1031.1;;;1.4;52.9
74433;BME280;62865;53.146;23.172;2023-04-03T21:01:00;1031.2;;;1.4;52.9
74433;BME280;62865;53.146;23.172;2023-04-03T21:21:48;1031.2;;;1.2;53.3
74433;BME280;62865;53.146;23.172;2023-04-03T21:26:16;1031.2;;;1.1;53.5
74433;BME280;62865;53.146;23.172;2023-04-03T21:31:49;1031.2;;;1.1;53.9
74433;BME280;62865;53.146;23.172;2023-04-03T21:36:00;1031.2;;;1;54
74433;BME280;62865;53.146;23.172;2023-04-03T21:41:40;1031.2;;;1;54
74433;BME280;62865;53.146;23.172;2023-04-03T21:46:48;1031.3;;;1;53.7
74433;BME280;62865;53.146;23.172;2023-04-03T21:51:26;1031.2;;;1;53.7
74433;BME280;62865;53.146;23.172;2023-04-03T21:56:48;1031.2;;;1;53.6
74433;BME280;62865;53.146;23.172;2023-04-03T22:01:07;1031.2;;;0.9;53.9
74433;BME280;62865;53.146;23.172;2023-04-03T22:06:40;1031.2;;;0.9;53.9
74433;BME280;62865;53.146;23.172;2023-04-03T22:11:48;1031.2;;;0.8;54.1
74433;BME280;62865;53.146;23.172;2023-04-03T22:16:24;1031.1;;;0.8;54.2
74433;BME280;62865;53.146;23.172;2023-04-03T22:21:46;1031.1;;;0.7;54.2
74433;BME280;62865;53.146;23.172;2023-04-03T22:26:00;1031.2;;;0.7;54.5
74433;BME280;62865;53.146;23.172;2023-04-03T22:31:40;1031.1;;;0.6;54.9
74433;BME280;62865;53.146;23.172;2023-04-03T22:36:48;1031.1;;;0.5;55.4
74433;BME280;62865;53.146;23.172;2023-04-03T22:41:01;1031.1;;;0.5;55.9
74433;BME280;62865;53.146;23.172;2023-04-03T22:46:48;1031.1;;;0.4;56.2
74433;BME280;62865;53.146;23.172;2023-04-03T22:51:30;1031.1;;;0.3;56.9
74433;BME280;62865;53.146;23.172;2023-04-03T22:56:40;1031.1;;;0.2;57.8
74433;BME280;62865;53.146;23.172;2023-04-03T23:01:46;1031.1;;;0;58.9
74433;BME280;62865;53.146;23.172;2023-04-03T23:06:24;1031.1;;;-0.1;59.5
74433;BME280;62865;53.146;23.172;2023-04-03T23:11:46;1031;;;-0.1;59.5
74433;BME280;62865;53.146;23.172;2023-04-03T23:16:00;1031;;;-0.1;59.6
74433;BME280;62865;53.146;23.172;2023-04-03T23:21:38;1031;;;-0.1;59.2
74433;BME280;62865;53.146;23.172;2023-04-03T23:26:02;1031;;;0;58.3
74433;BME280;62865;53.146;23.172;2023-04-03T23:31:22;1030.9;;;0;57.7
74433;BME280;62865;53.146;23.172;2023-04-03T23:36:44;1030.9;;;0;57.5
74433;BME280;62865;53.146;23.172;2023-04-03T23:41:14;1030.9;;;0;57.5
74433;BME280;62865;53.146;23.172;2023-04-03T23:46:26;1030.9;;;0;57.4
74433;BME280;62865;53.146;23.172;2023-04-03T23:51:42;1030.8;;;-0.1;57.5
74433;BME280;62865;53.146;23.172;2023-04-03T23:56:20;1030.8;;;-0.1;57.6
